Time;durP1;ratioP1;P1;durP2;ratioP2;P2;SDS_P1;SDS_P2;PMS_P1;PMS_P2;Temp;Humidity;BMP_temperature;BMP_pressure;BME280_temperature;BME280_humidity;BME280_pressure;Samples;Min_cycle;Max_cycle;Signal;HPM_P1;HPM_P2
2021/10/11 00:01:54;;;;;;;33.90;14.85;;;;;;;2.27;100.00;99902.36;4528817;76;28512;-77
2021/10/11 00:07:56;;;;;;;32.15;14.75;;;;;;;2.20;100.00;99904.29;4534048;76;28487;-79
2021/10/11 00:13:58;;;;;;;32.78;15.63;;;;;;;2.25;100.00;99894.54;4528548;76;28592;-80
2021/10/11 00:20:00;;;;;;;30.48;16.17;;;;;;;2.23;100.00;99887.23;4529374;76;28590;-79
2021/10/11 00:26:01;;;;;;;32.08;15.20;;;;;;;2.14;100.00;99885.03;4505316;78;28484;-77
2021/10/11 00:32:03;;;;;;;31.27;13.93;;;;;;;2.07;100.00;99876.83;4508704;77;28491;-80
2021/10/11 00:38:05;;;;;;;28.65;14.58;;;;;;;1.92;100.00;99875.73;4512578;78;28487;-81
2021/10/11 00:44:06;;;;;;;28.45;13.93;;;;;;;1.98;100.00;99863.67;4519584;77;28559;-79
2021/10/11 00:50:10;;;;;;;29.52;15.30;;;;;;;1.98;100.00;99867.66;4512718;77;28507;-79
2021/10/11 00:56:11;;;;;;;29.72;14.70;;;;;;;1.97;100.00;99871.30;4545665;76;28610;-80
2021/10/11 01:02:12;;;;;;;37.17;16.00;;;;;;;1.95;100.00;99865.66;4531832;76;28479;-77
2021/10/11 01:08:14;;;;;;;29.80;14.75;;;;;;;1.86;100.00;99865.73;4540334;76;28598;-78
2021/10/11 01:14:17;;;;;;;31.65;14.80;;;;;;;1.76;100.00;99852.58;4544603;76;28460;-79
2021/10/11 01:20:18;;;;;;;28.67;13.68;;;;;;;1.75;100.00;99842.45;4534475;76;28475;-78
2021/10/11 01:26:21;;;;;;;31.82;15.65;;;;;;;1.62;100.00;99840.22;4554387;76;28508;-78
2021/10/11 01:32:23;;;;;;;36.17;17.10;;;;;;;1.69;100.00;99851.52;4563624;76;28531;-79
2021/10/11 01:38:24;;;;;;;32.80;16.55;;;;;;;1.64;100.00;99832.09;4568737;76;28548;-78
2021/10/11 01:44:26;;;;;;;28.83;15.05;;;;;;;1.61;100.00;99827.92;4537514;75;28506;-78
2021/10/11 01:50:27;;;;;;;31.17;15.65;;;;;;;1.53;100.00;99820.73;4522765;76;28479;-78
2021/10/11 01:56:28;;;;;;;35.28;17.20;;;;;;;1.50;100.00;99825.03;4510161;77;28570;-80
2021/10/11 02:02:30;;;;;;;35.10;17.15;;;;;;;1.58;100.00;99822.12;4498234;78;28452;-79
2021/10/11 02:08:31;;;;;;;32.75;16.15;;;;;;;1.49;100.00;99824.69;4504022;76;28498;-80
2021/10/11 02:14:32;;;;;;;30.50;16.20;;;;;;;1.25;100.00;99822.17;4394009;78;28860;-78
2021/10/11 02:20:35;;;;;;;30.43;15.08;;;;;;;1.37;100.00;99808.19;4364588;79;28557;-79
2021/10/11 02:26:36;;;;;;;37.50;16.90;;;;;;;1.30;100.00;99800.52;4439573;78;28499;-80
2021/10/11 02:32:41;;;;;;;35.90;17.85;;;;;;;1.26;100.00;99795.17;4497128;77;28595;-79
2021/10/11 02:38:44;;;;;;;34.75;16.55;;;;;;;1.20;100.00;99796.61;4514394;76;28462;-79
2021/10/11 02:44:46;;;;;;;37.90;18.15;;;;;;;1.15;100.00;99804.67;4542024;76;28570;-78
2021/10/11 02:50:49;;;;;;;38.88;17.85;;;;;;;1.20;100.00;99790.50;4516405;76;28501;-80
2021/10/11 02:56:51;;;;;;;37.67;17.42;;;;;;;1.25;100.00;99790.38;4534545;76;28452;-80
2021/10/11 03:02:52;;;;;;;41.40;19.82;;;;;;;1.09;100.00;99773.84;4527159;76;28491;-79
2021/10/11 03:08:53;;;;;;;39.30;19.87;;;;;;;1.07;100.00;99766.52;4539057;76;28495;-80
2021/10/11 03:14:55;;;;;;;38.83;19.45;;;;;;;0.96;100.00;99764.94;4547246;76;28437;-80
2021/10/11 03:20:56;;;;;;;36.03;17.80;;;;;;;1.01;100.00;99767.62;4539713;76;28489;-78
2021/10/11 03:26:57;;;;;;;49.20;23.32;;;;;;;1.00;100.00;99763.30;4546341;76;28577;-77
2021/10/11 03:32:59;;;;;;;41.88;20.75;;;;;;;1.25;100.00;99763.04;4531178;76;28456;-78
2021/10/11 03:39:00;;;;;;;44.30;21.23;;;;;;;1.23;100.00;99766.34;4533167;76;28508;-81
2021/10/11 03:45:02;;;;;;;42.90;21.60;;;;;;;1.14;100.00;99760.12;4547136;76;28458;-81
2021/10/11 03:51:03;;;;;;;43.05;22.13;;;;;;;1.08;100.00;99749.64;4487286;78;28526;-80
2021/10/11 03:57:04;;;;;;;49.25;23.47;;;;;;;1.07;100.00;99747.97;4550362;77;28543;-81
2021/10/11 04:03:08;;;;;;;49.35;22.40;;;;;;;1.18;100.00;99751.38;4541066;78;28441;-80
2021/10/11 04:09:09;;;;;;;50.85;22.93;;;;;;;1.00;100.00;99746.94;4504130;79;28476;-80
2021/10/11 04:15:10;;;;;;;56.83;26.30;;;;;;;1.08;100.00;99741.69;4513766;78;28450;-78
2021/10/11 04:21:12;;;;;;;44.80;22.87;;;;;;;1.05;100.00;99743.33;4548865;77;28563;-80
2021/10/11 04:27:14;;;;;;;49.93;24.07;;;;;;;0.95;100.00;99738.12;4522535;77;28538;-80
2021/10/11 04:33:16;;;;;;;45.12;22.70;;;;;;;0.91;100.00;99724.83;4549104;78;28578;-80
2021/10/11 04:39:17;;;;;;;46.80;22.65;;;;;;;0.89;100.00;99716.72;4516255;78;28575;-79
2021/10/11 04:45:20;;;;;;;40.67;20.23;;;;;;;0.82;100.00;99718.63;4544508;78;28499;-78
2021/10/11 04:51:21;;;;;;;41.48;20.97;;;;;;;0.82;100.00;99724.41;4544408;76;28481;-79
2021/10/11 04:57:23;;;;;;;48.45;22.42;;;;;;;0.90;100.00;99712.58;4545637;78;28469;-79
2021/10/11 05:03:24;;;;;;;54.60;25.62;;;;;;;0.91;100.00;99715.56;4541022;78;28532;-80
2021/10/11 05:09:26;;;;;;;47.20;22.35;;;;;;;1.05;100.00;99711.55;4541395;78;28511;-80
2021/10/11 05:15:27;;;;;;;46.83;22.32;;;;;;;0.98;100.00;99713.13;4543753;78;28519;-80
2021/10/11 05:21:31;;;;;;;46.05;22.20;;;;;;;0.92;100.00;99711.92;4536274;78;28582;-80
2021/10/11 05:27:32;;;;;;;46.15;21.93;;;;;;;0.89;100.00;99718.04;4530170;77;28442;-80
2021/10/11 05:33:35;;;;;;;44.45;22.07;;;;;;;1.01;100.00;99712.84;4545160;78;28497;-82
2021/10/11 05:39:36;;;;;;;47.40;22.52;;;;;;;1.21;100.00;99717.47;4545529;78;28538;-81
2021/10/11 05:45:37;;;;;;;45.35;21.77;;;;;;;1.23;100.00;99708.88;4507779;78;28499;-80
2021/10/11 05:51:39;;;;;;;46.92;21.55;;;;;;;1.28;100.00;99711.58;4481546;78;28534;-79
2021/10/11 05:57:41;;;;;;;41.37;21.60;;;;;;;1.42;100.00;99706.21;4507915;78;28562;-81
2021/10/11 06:03:43;;;;;;;42.10;21.65;;;;;;;1.53;100.00;99706.77;4500860;78;28580;-81
2021/10/11 06:09:44;;;;;;;48.48;24.18;;;;;;;1.80;100.00;99700.97;4508081;77;28554;-81
2021/10/11 06:15:46;;;;;;;48.83;24.02;;;;;;;2.15;100.00;99704.95;4492370;78;28544;-79
2021/10/11 06:21:49;;;;;;;54.90;24.63;;;;;;;2.39;100.00;99702.05;4519631;78;28539;-83
2021/10/11 06:27:51;;;;;;;50.40;25.70;;;;;;;2.54;100.00;99692.11;4530281;78;28530;-84
2021/10/11 06:40:13;;;;;;;54.88;26.57;;;;;;;3.08;100.00;99704.97;4243317;82;28439;-84
2021/10/11 06:46:14;;;;;;;57.13;28.23;;;;;;;3.21;100.00;99695.18;4311920;81;28471;-79
2021/10/11 06:52:18;;;;;;;52.35;26.42;;;;;;;3.44;100.00;99699.81;4299560;81;28548;-86
2021/10/11 06:58:20;;;;;;;55.08;26.20;;;;;;;3.63;100.00;99700.78;4251461;82;28517;-85
2021/10/11 07:04:22;;;;;;;48.52;23.67;;;;;;;3.83;100.00;99702.22;4242788;82;28521;-83
2021/10/11 07:10:23;;;;;;;51.83;24.70;;;;;;;3.94;100.00;99693.87;4216061;83;28561;-83
2021/10/11 07:16:24;;;;;;;53.13;25.35;;;;;;;4.17;100.00;99687.81;4268404;81;28583;-86
2021/10/11 07:22:26;;;;;;;54.73;28.75;;;;;;;4.41;100.00;99684.70;4460410;76;28461;-86
2021/10/11 07:28:28;;;;;;;62.20;30.77;;;;;;;4.67;100.00;99683.53;4468219;79;28491;-82
2021/10/11 07:34:29;;;;;;;61.63;30.37;;;;;;;4.86;100.00;99683.07;4482099;77;28507;-83
2021/10/11 07:40:31;;;;;;;60.03;28.62;;;;;;;5.10;100.00;99683.91;4406202;79;28492;-80
2021/10/11 07:46:32;;;;;;;58.28;29.48;;;;;;;5.37;100.00;99668.84;4398418;79;28428;-84
2021/10/11 07:52:33;;;;;;;66.35;32.13;;;;;;;5.69;100.00;99669.00;4420515;78;28538;-79
2021/10/11 07:58:35;;;;;;;56.63;28.87;;;;;;;5.86;100.00;99658.15;4516726;76;28440;-80
2021/10/11 08:04:36;;;;;;;57.33;28.35;;;;;;;6.02;100.00;99648.30;4533682;76;28497;-81
2021/10/11 08:10:37;;;;;;;57.83;29.90;;;;;;;6.23;100.00;99647.02;4519742;76;28490;-82
2021/10/11 08:16:40;;;;;;;65.05;31.12;;;;;;;6.39;100.00;99643.30;4522570;76;28532;-83
2021/10/11 08:22:42;;;;;;;61.55;30.32;;;;;;;6.46;100.00;99643.89;4532827;76;28509;-88
2021/10/11 08:28:44;;;;;;;58.20;30.00;;;;;;;6.67;100.00;99643.09;4518837;76;28461;-86
2021/10/11 08:34:45;;;;;;;65.00;32.55;;;;;;;7.03;100.00;99644.84;4541405;77;28427;-87
2021/10/11 08:40:49;;;;;;;62.10;31.20;;;;;;;7.21;100.00;99639.54;4532149;76;28462;-84
2021/10/11 08:46:50;;;;;;;59.65;29.90;;;;;;;7.29;100.00;99632.71;4517792;76;28551;-83
2021/10/11 08:52:51;;;;;;;57.88;28.45;;;;;;;7.58;100.00;99638.84;4548188;76;28484;-85
2021/10/11 08:58:53;;;;;;;56.33;30.27;;;;;;;7.68;100.00;99635.30;4547057;76;28490;-82
2021/10/11 09:04:56;;;;;;;60.38;31.75;;;;;;;7.99;100.00;99629.69;4523300;76;28523;-85
2021/10/11 09:11:05;;;;;;;65.50;31.75;;;;;;;8.25;100.00;99628.16;4499074;78;28490;-82
2021/10/11 09:17:06;;;;;;;54.53;28.50;;;;;;;8.33;100.00;99622.59;4523966;76;28469;-82
2021/10/11 09:23:08;;;;;;;56.35;29.40;;;;;;;8.87;100.00;99623.55;4567783;76;28503;-81
2021/10/11 09:29:11;;;;;;;60.52;30.30;;;;;;;9.26;100.00;99608.97;4537808;76;28604;-83
2021/10/11 09:35:19;;;;;;;55.20;29.23;;;;;;;9.62;100.00;99612.21;4523621;76;28413;-81
2021/10/11 09:41:20;;;;;;;53.20;27.10;;;;;;;9.78;100.00;99613.61;4547092;77;28468;-82
2021/10/11 09:47:35;;;;;;;53.05;27.10;;;;;;;10.02;100.00;99595.96;4573090;77;28449;-80
2021/10/11 09:53:34;;;;;;;54.63;25.37;;;;;;;10.30;100.00;99594.80;4523920;77;28492;-82
2021/10/11 09:59:37;;;;;;;50.52;24.35;;;;;;;10.76;95.50;99583.96;4555959;76;28449;-81
2021/10/11 10:05:45;;;;;;;41.58;23.35;;;;;;;11.03;90.98;99582.41;4500752;77;28511;-81
2021/10/11 10:11:47;;;;;;;44.77;22.30;;;;;;;11.27;90.96;99569.97;4508530;76;28450;-81
2021/10/11 10:18:11;;;;;;;41.73;20.77;;;;;;;11.36;86.30;99557.03;4558680;76;28469;-82
2021/10/11 10:24:26;;;;;;;40.67;21.23;;;;;;;11.69;81.85;99545.05;4569315;76;28538;-83
2021/10/11 10:30:28;;;;;;;40.38;20.20;;;;;;;11.82;81.79;99537.88;4526443;76;28460;-83
2021/10/11 10:36:32;;;;;;;41.58;20.50;;;;;;;12.07;83.71;99530.22;4410618;78;28521;-81
2021/10/11 10:42:34;;;;;;;30.12;14.10;;;;;;;12.24;80.22;99505.61;4512438;78;28467;-82
2021/10/11 10:48:46;;;;;;;29.32;15.43;;;;;;;11.91;69.22;99502.81;4511068;77;28475;-84
2021/10/11 10:54:53;;;;;;;33.30;16.40;;;;;;;11.88;65.85;99508.66;4510194;77;28544;-83
2021/10/11 11:00:55;;;;;;;;;;;;;;;11.73;65.95;99499.64;4523133;78;28504;-83
2021/10/11 11:07:04;;;;;;;27.67;13.35;;;;;;;11.82;64.43;99500.97;4475213;78;20169;-82
2021/10/11 11:13:16;;;;;;;31.52;15.80;;;;;;;11.69;59.95;99489.84;4508615;78;28902;-82
2021/10/11 11:19:17;;;;;;;27.37;14.03;;;;;;;11.98;63.48;99475.25;4491576;78;28438;-82
2021/10/11 11:25:28;;;;;;;27.55;14.73;;;;;;;12.02;62.08;99462.66;4518789;78;28509;-83
2021/10/11 11:31:31;;;;;;;33.20;15.85;;;;;;;11.66;62.98;99469.27;4484774;77;28578;-85
2021/10/11 11:37:33;;;;;;;27.77;13.72;;;;;;;12.00;63.64;99455.62;4482732;78;28487;-83
2021/10/11 11:43:39;;;;;;;33.80;17.35;;;;;;;12.02;62.60;99447.36;4481288;78;28508;-76
2021/10/11 11:49:41;;;;;;;32.63;15.08;;;;;;;12.35;64.69;99439.80;4491489;78;28432;-81
2021/10/11 11:55:50;;;;;;;31.12;15.45;;;;;;;12.38;59.71;99439.33;4419071;78;28488;-80
2021/10/11 12:01:53;;;;;;;33.42;15.30;;;;;;;12.34;61.97;99432.23;4372035;81;28529;-83
2021/10/11 12:07:55;;;;;;;34.78;16.42;;;;;;;12.57;62.71;99432.48;4381945;80;28523;-80
2021/10/11 12:13:59;;;;;;;30.82;15.20;;;;;;;12.63;61.77;99427.48;4369416;80;28461;-80
2021/10/11 12:20:01;;;;;;;34.27;13.98;;;;;;;12.41;62.45;99426.72;4371290;80;28550;-81
2021/10/11 12:26:03;;;;;;;30.45;15.13;;;;;;;12.31;61.97;99415.18;4392094;80;28447;-82
2021/10/11 12:32:09;;;;;;;28.15;13.88;;;;;;;12.26;62.10;99406.45;4384989;80;28482;-80
2021/10/11 12:38:14;;;;;;;28.00;13.98;;;;;;;12.25;60.45;99409.36;4369367;78;28470;-81
2021/10/11 12:44:20;;;;;;;28.10;13.53;;;;;;;12.28;62.48;99408.89;4370727;81;28541;-83
2021/10/11 12:50:19;;;;;;;24.47;13.05;;;;;;;12.16;62.00;99404.02;4388750;81;28494;-84
2021/10/11 12:56:23;;;;;;;31.33;14.63;;;;;;;12.27;61.72;99402.69;4487385;77;28479;-81
2021/10/11 13:02:24;;;;;;;29.40;14.33;;;;;;;12.29;61.72;99399.77;4526850;77;28463;-83
2021/10/11 13:08:26;;;;;;;27.75;14.47;;;;;;;12.25;62.38;99399.92;4565366;76;28449;-81
2021/10/11 13:14:27;;;;;;;31.42;16.17;;;;;;;12.13;62.35;99401.25;4597347;75;28470;-81
2021/10/11 13:20:30;;;;;;;33.00;17.02;;;;;;;12.25;61.32;99403.97;4529966;76;28481;-82
2021/10/11 13:26:31;;;;;;;39.63;18.55;;;;;;;12.12;59.98;99392.36;4531020;76;28498;-80
2021/10/11 13:39:34;;;;;;;44.93;21.55;;;;;;;12.17;63.51;99386.78;4540351;77;28487;-82
2021/10/11 14:29:16;;;;;;;36.98;18.73;;;;;;;12.80;69.09;99342.08;4531863;76;28509;-87
2021/10/11 16:04:01;;;;;;;31.73;15.23;;;;;;;10.06;100.00;99337.66;4507694;77;28480;-83
2021/10/11 16:10:03;;;;;;;30.65;15.10;;;;;;;9.88;100.00;99330.64;4430745;77;28519;-84
2021/10/11 16:16:06;;;;;;;34.27;17.17;;;;;;;9.83;100.00;99332.34;4500489;78;28585;-87
2021/10/11 16:22:07;;;;;;;32.15;16.35;;;;;;;9.76;100.00;99335.92;4501044;77;28433;-82
2021/10/11 16:28:12;;;;;;;32.73;16.20;;;;;;;9.68;100.00;99336.69;4495661;77;28509;-81
2021/10/11 16:34:21;;;;;;;35.85;17.55;;;;;;;9.49;100.00;99332.61;4496905;77;28462;-82
2021/10/11 16:40:18;;;;;;;37.28;16.62;;;;;;;9.37;100.00;99339.17;4500805;77;28481;-86
2021/10/11 16:46:20;;;;;;;35.38;17.37;;;;;;;9.16;100.00;99346.52;4496446;77;28476;-86
2021/10/11 16:52:24;;;;;;;35.68;17.95;;;;;;;9.04;100.00;99350.91;4512515;77;28456;-89
2021/10/11 16:58:25;;;;;;;35.63;17.75;;;;;;;8.91;100.00;99348.59;4521737;77;28535;-83
2021/10/11 17:04:26;;;;;;;39.63;17.55;;;;;;;8.86;100.00;99353.75;4498017;77;28505;-84
2021/10/11 17:10:31;;;;;;;41.55;18.62;;;;;;;8.97;100.00;99347.42;4510717;77;28509;-86
2021/10/11 17:16:33;;;;;;;45.05;21.27;;;;;;;8.98;100.00;99350.41;4506212;77;28476;-84
2021/10/11 17:22:35;;;;;;;50.67;22.50;;;;;;;8.93;100.00;99349.70;4500822;77;28465;-84
2021/10/11 17:28:37;;;;;;;46.53;22.15;;;;;;;8.84;100.00;99357.67;4501261;78;28483;-85
2021/10/11 17:34:38;;;;;;;46.25;23.07;;;;;;;8.76;100.00;99356.06;4499263;77;28501;-86
2021/10/11 17:40:40;;;;;;;55.45;25.10;;;;;;;8.59;100.00;99359.72;4488556;77;28451;-86
2021/10/11 17:46:41;;;;;;;50.33;24.82;;;;;;;8.47;100.00;99356.81;4494639;77;28463;-85
2021/10/11 17:52:43;;;;;;;46.00;22.48;;;;;;;8.37;100.00;99346.02;4500687;77;28458;-84
2021/10/11 17:58:45;;;;;;;51.58;24.52;;;;;;;8.37;100.00;99348.69;4506799;77;28519;-86
2021/10/11 18:04:46;;;;;;;57.40;26.25;;;;;;;8.23;100.00;99342.55;4506357;77;28480;-85
2021/10/11 18:10:48;;;;;;;58.98;27.95;;;;;;;8.23;100.00;99341.72;4506512;78;28461;-84
2021/10/11 18:16:51;;;;;;;61.33;29.77;;;;;;;8.13;100.00;99350.19;4503792;77;28517;-84
2021/10/11 18:22:53;;;;;;;70.22;31.90;;;;;;;7.99;100.00;99349.38;4473907;78;28464;-89
2021/10/11 18:28:56;;;;;;;68.78;32.53;;;;;;;7.86;100.00;99345.33;4498155;77;28444;-88
2021/10/11 18:34:58;;;;;;;71.95;34.25;;;;;;;7.86;100.00;99339.98;4475225;77;28519;-83
2021/10/11 18:40:59;;;;;;;74.15;35.52;;;;;;;7.86;100.00;99337.30;4499230;77;28476;-82
2021/10/11 18:47:05;;;;;;;81.67;39.85;;;;;;;7.94;100.00;99334.42;4516882;77;28503;-81
2021/10/11 18:53:04;;;;;;;81.87;41.15;;;;;;;7.92;100.00;99327.95;4497870;77;28477;-83
2021/10/11 18:59:06;;;;;;;89.85;41.45;;;;;;;7.99;100.00;99328.45;4517930;77;28501;-82
2021/10/11 19:05:08;;;;;;;96.30;42.48;;;;;;;7.96;100.00;99325.66;4495209;77;28489;-85
2021/10/11 19:11:10;;;;;;;76.72;37.03;;;;;;;7.95;100.00;99324.86;4449142;78;28467;-85
2021/10/11 19:17:11;;;;;;;75.80;35.63;;;;;;;7.97;100.00;99321.14;4552639;76;28453;-85
2021/10/11 19:23:15;;;;;;;91.60;41.60;;;;;;;8.07;100.00;99321.05;4531207;76;28445;-83
2021/10/11 19:29:22;;;;;;;84.77;40.17;;;;;;;8.05;100.00;99326.30;4553286;76;28460;-83
2021/10/11 19:35:25;;;;;;;87.25;41.28;;;;;;;8.07;100.00;99316.20;4548720;76;28503;-82
2021/10/11 19:41:26;;;;;;;83.12;39.80;;;;;;;8.06;100.00;99317.23;4538128;76;28536;-81
2021/10/11 19:47:31;;;;;;;86.35;39.00;;;;;;;8.07;100.00;99310.34;4494833;76;50977;-82
2021/10/11 19:53:34;;;;;;;81.28;38.80;;;;;;;7.99;100.00;99305.19;4522792;76;28549;-82
2021/10/11 19:59:35;;;;;;;88.47;41.15;;;;;;;8.04;100.00;99306.71;4544648;76;28503;-82
2021/10/11 20:05:39;;;;;;;88.07;39.90;;;;;;;8.04;100.00;99301.36;4520206;76;28452;-84
2021/10/11 20:11:40;;;;;;;86.45;40.52;;;;;;;7.93;100.00;99300.15;4545593;76;28531;-83
2021/10/11 20:17:42;;;;;;;92.10;41.00;;;;;;;7.90;100.00;99297.06;4524995;76;28516;-84
2021/10/11 20:23:43;;;;;;;82.35;38.20;;;;;;;7.80;100.00;99293.44;4547776;76;28453;-80
2021/10/11 20:29:45;;;;;;;84.45;37.25;;;;;;;7.75;100.00;99292.72;4508520;76;28456;-82
2021/10/11 20:35:47;;;;;;;86.80;40.88;;;;;;;7.80;100.00;99288.93;4490527;77;28497;-84
2021/10/11 20:41:49;;;;;;;87.75;40.70;;;;;;;7.75;100.00;99285.22;4513182;77;28877;-85
2021/10/11 20:47:50;;;;;;;90.30;43.05;;;;;;;7.74;100.00;99292.95;4518681;77;28485;-84
2021/10/11 20:53:51;;;;;;;89.83;43.38;;;;;;;7.67;100.00;99292.95;4508385;77;28499;-83
2021/10/11 20:59:53;;;;;;;76.82;37.88;;;;;;;7.53;100.00;99287.58;4505643;77;28487;-82
2021/10/11 21:05:54;;;;;;;78.67;37.95;;;;;;;7.42;100.00;99289.52;4513318;77;28521;-82
2021/10/11 21:11:56;;;;;;;86.30;40.67;;;;;;;7.41;100.00;99282.53;4509943;78;28473;-81
2021/10/11 21:17:57;;;;;;;85.53;41.13;;;;;;;7.38;100.00;99277.06;4495449;78;28448;-82
2021/10/11 21:23:59;;;;;;;89.77;41.30;;;;;;;7.35;100.00;99266.78;4504755;77;28470;-82
2021/10/11 21:30:00;;;;;;;87.62;42.23;;;;;;;7.24;100.00;99262.05;4487821;77;28509;-82
2021/10/11 21:36:02;;;;;;;78.83;38.13;;;;;;;7.16;100.00;99255.05;4502533;77;28470;-83
2021/10/11 21:42:03;;;;;;;80.12;37.60;;;;;;;7.11;100.00;99253.47;4501405;77;28528;-81
2021/10/11 21:48:06;;;;;;;83.35;41.37;;;;;;;7.17;100.00;99251.84;4493670;77;28480;-84
2021/10/11 21:54:08;;;;;;;82.70;41.18;;;;;;;7.37;100.00;99255.89;4489206;77;28576;-82
2021/10/11 22:00:27;;;;;;;81.63;39.70;;;;;;;7.31;100.00;99245.50;4506916;77;28522;-82
2021/10/11 22:06:28;;;;;;;86.92;39.92;;;;;;;7.26;100.00;99239.92;4459692;77;28448;-83
2021/10/11 22:12:29;;;;;;;76.17;37.03;;;;;;;7.24;100.00;99238.81;4486172;77;28496;-84
2021/10/11 22:18:31;;;;;;;72.60;35.73;;;;;;;7.28;100.00;99231.17;4488017;77;28570;-82
2021/10/11 22:24:34;;;;;;;83.80;39.53;;;;;;;7.21;100.00;99223.15;4499121;77;28538;-82
2021/10/11 22:30:36;;;;;;;86.92;40.35;;;;;;;7.23;100.00;99224.30;4476335;77;28528;-82
2021/10/11 22:36:38;;;;;;;80.87;40.05;;;;;;;7.28;100.00;99225.83;4499997;77;28537;-82
2021/10/11 22:42:41;;;;;;;80.38;40.38;;;;;;;7.27;100.00;99220.17;4487462;77;28532;-82
2021/10/11 22:48:42;;;;;;;72.30;34.38;;;;;;;7.29;100.00;99218.14;4500411;77;28500;-82
2021/10/11 22:54:44;;;;;;;71.80;34.30;;;;;;;7.35;100.00;99213.81;4514645;78;28457;-82
2021/10/11 23:00:45;;;;;;;79.03;38.00;;;;;;;7.54;100.00;99212.96;4523151;78;28435;-82
2021/10/11 23:06:46;;;;;;;79.17;36.63;;;;;;;7.70;100.00;99210.06;4523669;77;28464;-79
2021/10/11 23:12:48;;;;;;;78.25;36.25;;;;;;;7.78;100.00;99212.03;4511308;77;28464;-81
2021/10/11 23:18:50;;;;;;;80.42;38.88;;;;;;;7.89;100.00;99212.42;4499405;77;28502;-81
2021/10/11 23:24:51;;;;;;;72.15;34.67;;;;;;;8.00;100.00;99213.62;4499590;77;28421;-82
2021/10/11 23:30:52;;;;;;;69.92;34.88;;;;;;;8.06;100.00;99207.44;4500714;78;28502;-84
2021/10/11 23:36:55;;;;;;;79.55;37.17;;;;;;;8.09;100.00;99197.63;4520356;77;28507;-82
2021/10/11 23:42:56;;;;;;;77.00;36.93;;;;;;;8.25;100.00;99203.04;4497735;77;28458;-82
2021/10/11 23:48:57;;;;;;;83.20;39.63;;;;;;;8.28;100.00;99203.14;4497541;77;28521;-81
2021/10/11 23:54:59;;;;;;;70.90;35.05;;;;;;;8.23;100.00;99209.13;4494743;78;28496;-81
